Time;durP1;ratioP1;P1;durP2;ratioP2;P2;SDS_P1;SDS_P2;PMS_P1;PMS_P2;Temp;Humidity;BMP_temperature;BMP_pressure;BME280_temperature;BME280_humidity;BME280_pressure;Samples;Min_cycle;Max_cycle;Signal;HPM_P1;HPM_P2
2021/06/26 00:01:41;;;;;;;19.70;18.10;;;19.50;94.30;;;;;;4978971;28;20473;-90
2021/06/26 00:04:14;;;;;;;18.77;17.17;;;16.70;90.10;;;;;;4995379;28;20596;-90
2021/06/26 00:07:06;;;;;;;21.10;17.20;;;13.60;83.60;;;;;;4995912;28;20409;-91
2021/06/26 00:09:43;;;;;;;18.53;17.03;;;18.30;90.00;;;;;;4995557;28;20477;-91
2021/06/26 00:12:10;;;;;;;19.37;17.57;;;19.70;90.10;;;;;;4995380;28;20500;-90
2021/06/26 00:14:58;;;;;;;19.33;17.63;;;17.90;90.60;;;;;;4996109;28;20477;-91
2021/06/26 00:17:33;;;;;;;19.20;16.27;;;16.70;90.30;;;;;;4987421;28;20425;-92
2021/06/26 00:19:59;;;;;;;19.77;17.87;;;;;;;;;;4977595;28;20404;-92
2021/06/26 00:22:28;;;;;;;21.07;18.60;;;16.40;86.40;;;;;;4994954;28;20497;-92
2021/06/26 00:24:53;;;;;;;19.20;17.50;;;16.30;88.00;;;;;;4994680;28;20551;-91
2021/06/26 00:27:24;;;;;;;19.90;18.10;;;14.10;91.80;;;;;;4994084;28;20460;-91
2021/06/26 00:30:00;;;;;;;20.43;18.63;;;18.10;90.50;;;;;;4963433;28;20441;-92
2021/06/26 00:32:31;;;;;;;20.30;18.30;;;19.10;90.90;;;;;;4978206;28;20497;-91
2021/06/26 00:35:06;;;;;;;19.83;17.93;;;17.00;91.40;;;;;;4947202;28;20511;-91
2021/06/26 00:37:41;;;;;;;19.40;17.40;;;19.90;95.70;;;;;;4979639;28;20418;-91
2021/06/26 00:40:15;;;;;;;19.00;17.10;;;16.40;88.30;;;;;;4994305;28;20433;-91
2021/06/26 00:42:49;;;;;;;20.50;18.30;;;18.10;93.10;;;;;;4994477;28;20425;-91
2021/06/26 00:45:30;;;;;;;21.47;19.43;;;16.00;88.40;;;;;;4978539;28;20429;-91
2021/06/26 00:48:17;;;;;;;18.50;16.80;;;15.60;91.90;;;;;;4995507;28;20445;-91
2021/06/26 00:50:47;;;;;;;19.77;17.77;;;17.00;93.90;;;;;;4977652;28;20449;-92
2021/06/26 00:53:13;;;;;;;19.03;17.30;;;20.10;94.70;;;;;;4962240;28;20453;-91
2021/06/26 00:55:39;;;;;;;18.97;17.27;;;17.90;92.70;;;;;;4993105;28;20472;-91
2021/06/26 00:58:08;;;;;;;20.00;18.00;;;17.70;94.20;;;;;;4993903;28;20421;-93
2021/06/26 01:00:34;;;;;;;20.87;18.90;;;18.80;93.50;;;;;;4974185;28;20432;-91
2021/06/26 01:03:12;;;;;;;20.63;18.63;;;16.30;93.80;;;;;;4993944;28;20414;-92
2021/06/26 01:05:48;;;;;;;19.00;17.30;;;19.00;91.40;;;;;;4995116;28;20449;-92
2021/06/26 01:08:17;;;;;;;20.17;18.10;;;18.60;91.30;;;;;;4975719;28;20441;-91
2021/06/26 01:10:48;;;;;;;20.40;18.30;;;17.90;91.50;;;;;;4987367;28;20437;-91
2021/06/26 01:13:25;;;;;;;20.13;18.40;;;15.50;91.40;;;;;;4994626;28;20438;-91
2021/06/26 01:16:17;;;;;;;19.93;18.00;;;16.20;89.70;;;;;;4993411;28;20488;-91
2021/06/26 01:18:49;;;;;;;19.27;17.20;;;16.50;90.00;;;;;;4994233;28;20424;-91
2021/06/26 01:21:18;;;;;;;19.73;18.00;;;17.60;91.90;;;;;;4990300;28;20416;-91
2021/06/26 01:23:53;;;;;;;21.50;19.20;;;19.10;91.70;;;;;;4963395;28;20425;-91
2021/06/26 01:26:35;;;;;;;19.53;17.70;;;15.10;87.50;;;;;;4981198;28;20425;-91
2021/06/26 01:29:33;;;;;;;21.57;19.47;;;16.50;89.10;;;;;;4997904;28;20449;-91
2021/06/26 01:31:59;;;;;;;21.13;19.00;;;16.40;91.00;;;;;;4959871;28;20452;-91
2021/06/26 01:34:39;;;;;;;18.90;17.27;;;17.40;92.40;;;;;;4994913;28;20459;-91
2021/06/26 01:37:07;;;;;;;21.97;19.77;;;17.40;88.70;;;;;;4955276;29;20423;-92
2021/06/26 01:39:33;;;;;;;24.40;18.30;;;18.60;92.10;;;;;;4946738;28;20437;-91
2021/06/26 01:42:12;;;;;;;21.07;18.87;;;14.70;91.90;;;;;;4961589;28;20425;-91
2021/06/26 01:44:47;;;;;;;19.63;17.93;;;19.20;90.60;;;;;;4994903;28;20418;-91
2021/06/26 01:47:14;;;;;;;21.87;19.40;;;16.80;91.50;;;;;;4980053;28;20430;-91
2021/06/26 01:49:40;;;;;;;20.40;18.50;;;16.70;93.60;;;;;;4994249;28;20425;-91
2021/06/26 01:52:18;;;;;;;23.87;19.63;;;18.80;91.40;;;;;;4976706;28;20456;-91
2021/06/26 01:54:57;;;;;;;23.80;19.30;;;18.80;90.10;;;;;;4991146;28;20484;-92
2021/06/26 01:57:39;;;;;;;24.87;21.10;;;19.30;93.10;;;;;;4995120;28;20449;-92
2021/06/26 02:00:43;;;;;;;24.77;19.43;;;19.60;93.20;;;;;;4978321;28;20421;-91
2021/06/26 02:03:15;;;;;;;20.77;18.73;;;16.30;97.80;;;;;;4982641;28;20421;-92
2021/06/26 02:05:42;;;;;;;24.07;20.67;;;15.20;90.30;;;;;;4994269;28;20430;-93
2021/06/26 02:08:13;;;;;;;20.93;18.80;;;18.10;92.50;;;;;;4975367;28;20429;-92
2021/06/26 02:10:41;;;;;;;21.30;19.03;;;16.50;90.20;;;;;;4979090;28;20429;-91
2021/06/26 02:13:17;;;;;;;21.23;19.33;;;16.60;95.20;;;;;;4979137;28;20414;-91
2021/06/26 02:16:01;;;;;;;23.27;21.07;;;16.00;90.00;;;;;;4995287;28;20523;-91
2021/06/26 02:19:14;;;;;;;23.90;21.60;;;16.10;90.10;;;;;;4996038;28;20503;-91
2021/06/26 02:21:47;;;;;;;21.80;19.53;;;19.00;91.90;;;;;;4979977;28;20429;-92
2021/06/26 02:24:32;;;;;;;24.70;20.97;;;18.20;91.80;;;;;;4980703;28;20425;-92
2021/06/26 02:27:06;;;;;;;24.63;21.97;;;14.50;89.20;;;;;;4998919;28;20409;-92
2021/06/26 02:29:51;;;;;;;25.80;21.30;;;18.40;92.10;;;;;;4999595;28;20397;-92
2021/06/26 02:32:20;;;;;;;23.10;21.00;;;17.70;91.60;;;;;;4998421;28;20419;-91
2021/06/26 02:34:54;;;;;;;24.37;21.80;;;16.00;93.70;;;;;;4980639;28;20548;-91
2021/06/26 02:37:31;;;;;;;23.20;20.87;;;18.80;91.90;;;;;;4978687;28;20417;-92
2021/06/26 02:40:35;;;;;;;22.97;20.67;;;16.30;90.00;;;;;;5000111;28;20440;-91
2021/06/26 02:43:41;;;;;;;22.07;19.90;;;18.80;91.20;;;;;;4987595;28;20413;-91
2021/06/26 02:46:08;;;;;;;22.63;20.33;;;17.00;91.80;;;;;;4978040;28;20416;-89
2021/06/26 02:48:49;;;;;;;22.63;20.33;;;19.20;95.10;;;;;;5000630;28;20420;-91
2021/06/26 02:51:27;;;;;;;42.63;22.27;;;16.70;87.30;;;;;;4999762;28;20440;-92
2021/06/26 02:54:03;;;;;;;23.10;20.67;;;17.20;88.90;;;;;;4999681;28;20469;-90
2021/06/26 02:56:37;;;;;;;25.17;22.67;;;20.80;94.00;;;;;;5000112;28;20430;-91
2021/06/26 02:59:06;;;;;;;23.03;20.77;;;15.60;88.10;;;;;;5000882;28;20404;-91
2021/06/26 03:01:41;;;;;;;24.10;21.50;;;16.90;92.30;;;;;;5001060;28;20441;-91
2021/06/26 03:04:09;;;;;;;24.13;21.70;;;16.90;94.10;;;;;;4962490;28;20469;-91
2021/06/26 03:06:35;;;;;;;23.30;21.10;;;17.40;93.00;;;;;;4999150;28;20418;-92
2021/06/26 03:09:12;;;;;;;22.87;20.57;;;17.50;94.70;;;;;;4943715;29;20514;-91
2021/06/26 03:11:39;;;;;;;24.33;21.80;;;16.10;91.80;;;;;;4981031;28;20170;-92
2021/06/26 03:14:29;;;;;;;23.90;21.40;;;18.30;93.80;;;;;;4996371;28;20453;-91
2021/06/26 03:16:59;;;;;;;23.13;20.70;;;18.40;90.90;;;;;;4999126;28;20437;-92
2021/06/26 03:19:28;;;;;;;24.50;20.73;;;18.40;93.00;;;;;;4968037;28;20463;-91
2021/06/26 03:21:55;;;;;;;24.00;21.33;;;16.20;92.80;;;;;;4980265;28;20398;-91
2021/06/26 03:24:22;;;;;;;23.67;21.20;;;16.50;88.50;;;;;;4996161;28;20410;-91
2021/06/26 03:26:47;;;;;;;23.87;21.37;;;17.00;90.80;;;;;;4979810;28;20456;-90
2021/06/26 03:29:13;;;;;;;22.73;20.67;;;18.80;94.50;;;;;;4990448;28;20489;-88
2021/06/26 03:31:39;;;;;;;24.63;20.80;;;;;;;;;;4995836;28;20189;-91
2021/06/26 03:34:10;;;;;;;22.50;20.17;;;16.00;86.70;;;;;;4994931;28;20202;-91
2021/06/26 03:36:36;;;;;;;23.33;21.03;;;16.50;88.40;;;;;;4996010;28;20418;-91
2021/06/26 03:39:03;;;;;;;22.73;20.60;;;18.60;93.90;;;;;;4992961;28;20436;-91
2021/06/26 03:41:30;;;;;;;24.50;21.40;;;16.10;90.90;;;;;;4993708;28;20412;-92
2021/06/26 03:43:58;;;;;;;25.03;22.63;;;14.20;92.00;;;;;;4992748;28;20424;-92
2021/06/26 03:46:25;;;;;;;23.63;21.20;;;15.80;91.30;;;;;;4976011;28;20915;-91
2021/06/26 03:48:56;;;;;;;23.77;21.23;;;16.50;91.20;;;;;;4991700;28;20413;-92
2021/06/26 03:51:31;;;;;;;27.20;22.60;;;14.60;88.80;;;;;;4978650;28;20420;-92
2021/06/26 03:53:58;;;;;;;23.87;21.37;;;15.60;90.10;;;;;;4994982;28;20819;-92
2021/06/26 03:56:30;;;;;;;25.37;22.67;;;18.80;95.60;;;;;;4965094;28;20501;-91
2021/06/26 03:59:19;;;;;;;23.73;21.03;;;15.70;90.00;;;;;;4997325;28;20905;-92
2021/06/26 04:02:15;;;;;;;25.03;22.53;;;15.80;90.00;;;;;;4997251;28;20420;-92
2021/06/26 04:04:46;;;;;;;25.20;22.50;;;18.90;92.10;;;;;;4982749;28;20537;-92
2021/06/26 04:07:18;;;;;;;25.83;22.03;;;16.10;91.20;;;;;;4995309;28;20449;-92
2021/06/26 04:09:46;;;;;;;23.07;20.90;;;16.10;92.90;;;;;;4996572;28;20394;-91
2021/06/26 04:12:18;;;;;;;24.37;21.90;;;16.20;91.30;;;;;;4979280;28;20421;-91
2021/06/26 04:14:44;;;;;;;24.23;21.17;;;18.70;90.00;;;;;;4976715;28;20541;-91
2021/06/26 04:17:13;;;;;;;25.07;22.40;;;17.70;91.70;;;;;;4995852;28;20409;-91
2021/06/26 04:19:41;;;;;;;22.47;20.17;;;15.80;90.90;;;;;;4964431;28;20441;-92
2021/06/26 04:22:08;;;;;;;23.33;20.87;;;16.10;90.90;;;;;;4961662;28;20418;-92
2021/06/26 04:24:47;;;;;;;25.27;22.57;;;17.00;92.80;;;;;;4977835;28;20433;-91
2021/06/26 04:27:19;;;;;;;38.97;24.63;;;16.10;91.20;;;;;;4977868;28;20849;-90
2021/06/26 04:29:45;;;;;;;23.40;21.00;;;18.70;91.00;;;;;;4992888;28;20421;-91
2021/06/26 04:32:16;;;;;;;23.00;20.70;;;15.20;93.50;;;;;;4977861;28;20634;-91
2021/06/26 04:34:45;;;;;;;24.53;22.20;;;16.80;91.60;;;;;;4993338;28;20471;-92
2021/06/26 04:37:13;;;;;;;28.30;22.13;;;17.10;90.00;;;;;;4977434;28;20437;-92
2021/06/26 04:39:45;;;;;;;22.90;20.60;;;17.00;88.30;;;;;;4994971;28;20481;-91
2021/06/26 04:42:18;;;;;;;22.47;20.03;;;17.30;93.10;;;;;;4995843;28;20420;-91
2021/06/26 04:44:49;;;;;;;23.33;21.13;;;17.40;92.70;;;;;;4994936;28;20768;-91
2021/06/26 04:47:15;;;;;;;23.23;21.03;;;17.10;89.70;;;;;;4993453;28;20425;-90
2021/06/26 04:49:41;;;;;;;21.50;19.23;;;18.40;92.70;;;;;;4976335;28;20846;-92
2021/06/26 04:52:08;;;;;;;22.40;20.30;;;19.00;93.00;;;;;;4961012;28;20433;-92
2021/06/26 04:54:34;;;;;;;21.30;19.33;;;21.20;91.40;;;;;;4994557;28;20449;-89
2021/06/26 04:57:01;;;;;;;22.83;20.73;;;17.80;91.00;;;;;;4993715;28;20433;-91
2021/06/26 04:59:32;;;;;;;21.47;19.27;;;17.20;88.90;;;;;;4997648;28;20434;-90
2021/06/26 05:02:05;;;;;;;20.50;18.60;;;17.70;85.00;;;;;;4998665;28;20488;-90
2021/06/26 05:04:31;;;;;;;21.90;19.70;;;17.90;85.20;;;;;;4999288;28;20445;-92
2021/06/26 05:06:59;;;;;;;21.10;19.07;;;18.40;86.70;;;;;;4982219;28;20435;-91
2021/06/26 05:09:30;;;;;;;21.73;19.80;;;20.30;86.20;;;;;;4998646;28;20421;-92
2021/06/26 05:11:58;;;;;;;22.00;20.07;;;19.90;78.90;;;;;;4996823;28;20462;-91
2021/06/26 05:14:27;;;;;;;21.10;19.00;;;19.30;81.40;;;;;;4950926;28;20485;-92
2021/06/26 05:16:52;;;;;;;21.17;19.30;;;18.50;74.40;;;;;;4998577;28;20536;-91
2021/06/26 05:19:20;;;;;;;23.73;20.77;;;19.00;81.30;;;;;;4998564;28;20462;-91
2021/06/26 05:21:45;;;;;;;21.40;19.33;;;21.30;82.40;;;;;;4982414;28;20551;-91
2021/06/26 05:24:12;;;;;;;21.37;18.27;;;;;;;;;;4998650;28;20421;-91
2021/06/26 05:26:38;;;;;;;21.87;19.83;;;19.20;70.60;;;;;;4990492;28;20178;-92
2021/06/26 05:29:05;;;;;;;21.80;19.90;;;21.20;75.20;;;;;;4993915;28;20402;-91
2021/06/26 05:31:32;;;;;;;21.97;19.70;;;20.80;75.10;;;;;;4992061;28;20426;-90
2021/06/26 05:33:58;;;;;;;22.13;20.03;;;19.90;68.20;;;;;;4974770;28;20456;-91
2021/06/26 05:36:27;;;;;;;19.97;18.07;;;20.70;70.20;;;;;;4990348;28;20434;-91
2021/06/26 05:38:57;;;;;;;22.13;20.03;;;20.90;68.20;;;;;;4959372;28;20429;-91
2021/06/26 05:41:25;;;;;;;21.33;19.40;;;20.40;63.20;;;;;;4993170;28;20433;-91
2021/06/26 05:43:57;;;;;;;22.80;18.70;;;20.00;68.30;;;;;;4992669;28;20425;-92
2021/06/26 05:46:24;;;;;;;21.60;19.57;;;20.30;63.20;;;;;;4959849;28;20544;-92
2021/06/26 05:48:50;;;;;;;21.50;19.50;;;21.70;71.00;;;;;;4989986;28;20432;-91
2021/06/26 05:51:25;;;;;;;23.30;21.10;;;21.80;70.50;;;;;;4990531;28;20425;-93
2021/06/26 05:53:52;;;;;;;21.10;19.20;;;20.40;63.20;;;;;;4991351;28;20169;-91
2021/06/26 05:56:21;;;;;;;22.00;19.93;;;20.50;64.10;;;;;;4974980;28;20425;-91
2021/06/26 05:59:00;;;;;;;26.97;21.70;;;20.60;69.20;;;;;;4993791;28;20416;-91
2021/06/26 06:01:27;;;;;;;21.20;19.40;;;20.90;66.10;;;;;;4993089;28;20441;-91
2021/06/26 06:03:53;;;;;;;24.50;22.23;;;18.60;69.40;;;;;;4980736;28;20429;-91
2021/06/26 06:06:27;;;;;;;21.73;19.70;;;22.00;71.50;;;;;;4995146;28;20473;-91
2021/06/26 06:08:54;;;;;;;26.17;23.67;;;20.10;66.10;;;;;;4995691;28;20282;-91
2021/06/26 06:11:24;;;;;;;24.60;21.33;;;20.40;70.00;;;;;;4995622;28;20441;-89
2021/06/26 06:13:56;;;;;;;28.13;25.03;;;22.10;72.20;;;;;;4996115;28;20465;-92
2021/06/26 06:16:29;;;;;;;35.47;31.60;;;23.10;68.10;;;;;;4994711;28;20445;-92
2021/06/26 06:18:59;;;;;;;29.17;26.07;;;21.20;61.60;;;;;;4997240;28;20453;-92
2021/06/26 06:21:30;;;;;;;28.93;25.67;;;21.20;61.20;;;;;;4996024;28;20429;-93
2021/06/26 06:24:02;;;;;;;30.43;27.40;;;22.50;62.40;;;;;;4997750;28;20393;-92
2021/06/26 06:26:33;;;;;;;29.33;26.27;;;21.50;58.30;;;;;;4961741;28;20425;-90
2021/06/26 06:29:03;;;;;;;28.97;26.03;;;22.50;58.60;;;;;;4995506;28;20444;-92
2021/06/26 06:31:29;;;;;;;28.07;25.33;;;20.50;55.90;;;;;;4993173;28;20435;-90
2021/06/26 06:33:55;;;;;;;28.13;25.27;;;22.90;58.70;;;;;;4994124;28;20536;-88
2021/06/26 06:36:24;;;;;;;28.00;25.10;;;23.70;55.50;;;;;;4991463;28;20425;-92
2021/06/26 06:38:56;;;;;;;29.20;26.47;;;24.00;54.00;;;;;;4992643;28;20594;-90
2021/06/26 06:41:22;;;;;;;25.63;23.30;;;23.90;54.70;;;;;;4987422;28;20440;-89
2021/06/26 06:43:47;;;;;;;24.15;21.88;;;26.90;55.80;;;;;;4632893;28;9999684;-89
2021/06/26 06:46:13;;;;;;;24.50;22.43;;;24.20;51.30;;;;;;4975759;28;20172;-88
2021/06/26 06:48:39;;;;;;;26.67;24.30;;;25.10;50.30;;;;;;4973864;28;20217;-89
2021/06/26 06:51:05;;;;;;;24.90;22.60;;;26.30;48.50;;;;;;4975263;28;20170;-87
2021/06/26 06:53:30;;;;;;;24.03;21.90;;;26.60;48.60;;;;;;4977039;28;20223;-89
2021/06/26 06:55:58;;;;;;;22.73;20.87;;;27.10;48.50;;;;;;4976182;28;20472;-89
2021/06/26 06:58:24;;;;;;;24.73;22.57;;;27.30;47.50;;;;;;4976186;28;20265;-88
2021/06/26 07:00:54;;;;;;;22.53;20.67;;;28.40;46.20;;;;;;4982875;28;21006;-90
2021/06/26 07:03:20;;;;;;;24.77;21.50;;;28.20;43.50;;;;;;4987708;28;20405;-93
2021/06/26 07:05:46;;;;;;;22.50;20.70;;;28.00;44.90;;;;;;4991460;28;20460;-92
2021/06/26 07:08:11;;;;;;;21.47;19.63;;;29.30;46.40;;;;;;4986074;28;20185;-91
2021/06/26 07:10:49;;;;;;;22.23;20.23;;;28.70;44.30;;;;;;4645933;28;9999860;-90
2021/06/26 07:13:17;;;;;;;22.63;20.73;;;29.70;43.00;;;;;;4990966;28;20182;-93
2021/06/26 07:15:47;;;;;;;20.13;18.30;;;29.30;42.90;;;;;;4985614;28;20484;-91
2021/06/26 07:18:19;;;;;;;18.50;17.00;;;27.90;42.80;;;;;;4973634;28;20193;-92
2021/06/26 07:20:54;;;;;;;16.93;15.63;;;29.50;40.20;;;;;;4978370;28;20472;-91
2021/06/26 07:23:20;;;;;;;15.53;14.43;;;30.40;41.80;;;;;;4993445;28;20420;-91
2021/06/26 07:25:49;;;;;;;16.27;15.07;;;28.60;42.50;;;;;;4987215;28;20421;-91
2021/06/26 07:28:18;;;;;;;18.50;17.00;;;28.70;41.70;;;;;;4988486;28;20394;-94
2021/06/26 07:30:45;;;;;;;14.40;13.50;;;28.90;40.30;;;;;;4994117;28;20496;-90
2021/06/26 07:33:11;;;;;;;14.77;13.77;;;29.40;41.20;;;;;;4990252;28;20530;-91
2021/06/26 07:35:40;;;;;;;16.30;14.90;;;30.20;40.40;;;;;;4985493;28;20209;-90
2021/06/26 07:38:10;;;;;;;13.97;13.07;;;30.30;40.50;;;;;;5011503;28;20173;-91
2021/06/26 07:40:40;;;;;;;13.30;12.50;;;30.90;38.40;;;;;;5013799;28;20396;-91
2021/06/26 07:43:18;;;;;;;12.40;11.67;;;30.70;37.00;;;;;;4997397;28;20421;-90
2021/06/26 07:45:47;;;;;;;11.23;10.47;;;30.30;38.20;;;;;;5013065;28;20397;-91
2021/06/26 07:48:19;;;;;;;11.33;10.53;;;30.20;38.00;;;;;;5008737;28;20463;-90
2021/06/26 07:50:52;;;;;;;11.47;10.87;;;30.50;38.50;;;;;;4989362;28;20412;-92
2021/06/26 07:53:25;;;;;;;11.40;10.60;;;30.90;36.50;;;;;;5011161;28;20456;-95
2021/06/26 07:55:53;;;;;;;11.67;10.67;;;31.10;36.40;;;;;;4992071;28;20480;-93
2021/06/26 07:58:22;;;;;;;12.33;11.53;;;31.70;37.50;;;;;;5010780;28;20431;-92
2021/06/26 08:00:53;;;;;;;14.30;13.30;;;31.90;36.00;;;;;;5008629;28;20421;-91
2021/06/26 08:03:32;;;;;;;12.80;11.90;;;32.30;35.80;;;;;;5010128;28;20417;-92
2021/06/26 08:05:58;;;;;;;13.30;12.33;;;32.90;35.60;;;;;;4996457;28;20448;-93
2021/06/26 08:08:29;;;;;;;10.40;9.80;;;31.80;35.30;;;;;;5013584;28;20425;-90
2021/06/26 08:10:57;;;;;;;10.03;9.63;;;33.50;34.10;;;;;;5008185;28;20467;-91
2021/06/26 08:13:27;;;;;;;8.57;8.27;;;33.80;33.70;;;;;;5009072;28;20435;-91
2021/06/26 08:15:57;;;;;;;8.63;8.23;;;34.00;31.70;;;;;;5011020;28;20472;-90
2021/06/26 08:18:22;;;;;;;9.03;8.57;;;34.30;32.90;;;;;;4998964;28;20447;-88
2021/06/26 08:20:48;;;;;;;8.93;8.53;;;33.60;33.00;;;;;;4988598;28;20429;-89
2021/06/26 08:23:17;;;;;;;10.60;10.03;;;34.10;32.90;;;;;;4991141;28;20197;-89
2021/06/26 08:25:54;;;;;;;8.53;8.23;;;34.00;31.40;;;;;;4989481;28;20492;-89
2021/06/26 08:28:24;;;;;;;9.67;9.17;;;33.80;30.80;;;;;;4972490;28;20837;-91
2021/06/26 08:30:54;;;;;;;9.50;9.00;;;34.20;31.00;;;;;;4974908;28;20517;-91
2021/06/26 08:33:20;;;;;;;9.30;8.90;;;33.20;30.20;;;;;;4989906;28;20418;-91
2021/06/26 08:35:46;;;;;;;9.60;9.07;;;33.60;31.20;;;;;;4990444;28;20472;-90
2021/06/26 08:38:13;;;;;;;10.50;9.90;;;33.00;31.50;;;;;;4991905;28;20186;-90
2021/06/26 08:40:40;;;;;;;10.07;9.37;;;33.50;31.40;;;;;;4992824;28;20178;-91
2021/06/26 08:43:09;;;;;;;10.80;10.17;;;33.80;32.10;;;;;;4992616;28;20477;-90
2021/06/26 08:45:37;;;;;;;9.80;9.30;;;32.90;32.50;;;;;;4995326;28;20441;-91
2021/06/26 08:48:12;;;;;;;10.70;10.20;;;32.90;32.00;;;;;;4990794;28;20445;-93
2021/06/26 08:50:49;;;;;;;9.33;9.00;;;33.20;31.80;;;;;;4989153;28;20401;-93
2021/06/26 08:53:23;;;;;;;10.50;10.00;;;32.80;31.70;;;;;;4988002;28;20433;-91
2021/06/26 08:55:54;;;;;;;8.83;8.20;;;32.90;31.10;;;;;;4975082;28;20469;-87
2021/06/26 08:58:39;;;;;;;9.40;9.00;;;33.90;30.50;;;;;;4992867;28;20528;-90
2021/06/26 09:01:27;;;;;;;10.80;10.30;;;34.10;30.00;;;;;;4994076;28;20476;-90
2021/06/26 09:04:07;;;;;;;9.90;9.40;;;34.10;31.40;;;;;;4993301;28;20429;-89
2021/06/26 09:06:48;;;;;;;10.37;9.53;;;33.20;30.50;;;;;;4993400;28;20481;-90
2021/06/26 09:09:14;;;;;;;8.87;8.40;;;33.30;32.80;;;;;;4980745;28;20433;-89
2021/06/26 09:11:40;;;;;;;9.53;9.00;;;34.40;33.00;;;;;;4982543;28;20421;-89
2021/06/26 09:14:19;;;;;;;9.23;8.73;;;33.20;30.90;;;;;;4983221;28;20210;-90
2021/06/26 09:17:01;;;;;;;10.20;9.40;;;34.50;30.00;;;;;;4988281;28;20444;-89
2021/06/26 09:19:28;;;;;;;9.70;9.10;;;34.60;30.10;;;;;;4993321;28;20476;-89
2021/06/26 09:22:42;;;;;;;9.20;8.70;;;34.30;31.00;;;;;;4994989;28;20435;-88
2021/06/26 09:25:52;;;;;;;8.87;8.33;;;35.00;29.80;;;;;;4990671;28;20413;-90
2021/06/26 09:28:41;;;;;;;8.17;7.80;;;35.60;28.90;;;;;;4992006;28;20409;-91
2021/06/26 09:34:09;;;;;;;8.93;8.60;;;36.80;29.40;;;;;;4971972;28;20548;-90
2021/06/26 09:36:35;;;;;;;9.40;8.80;;;37.00;29.20;;;;;;4988034;28;20449;-88
2021/06/26 09:39:06;;;;;;;9.17;8.87;;;38.80;31.20;;;;;;4975402;28;20418;-90
2021/06/26 09:41:32;;;;;;;8.83;8.33;;;36.60;29.00;;;;;;4972727;29;20875;-90
2021/06/26 09:44:12;;;;;;;9.90;9.40;;;36.20;29.20;;;;;;4971641;29;20518;-90
2021/06/26 09:46:45;;;;;;;9.20;8.80;;;35.30;29.80;;;;;;4968022;29;20414;-89
2021/06/26 09:49:25;;;;;;;8.97;8.47;;;34.30;30.20;;;;;;4946153;29;20778;-89
2021/06/26 09:52:12;;;;;;;10.57;9.80;;;33.60;30.70;;;;;;4962508;29;20429;-88
2021/06/26 09:54:38;;;;;;;10.10;9.50;;;33.20;31.70;;;;;;4977179;28;20466;-88
2021/06/26 09:57:04;;;;;;;10.40;9.90;;;32.40;32.80;;;;;;4950186;29;20427;-87
2021/06/26 09:59:32;;;;;;;10.40;9.63;;;31.40;32.90;;;;;;4944492;29;20605;-88
2021/06/26 10:01:59;;;;;;;9.83;9.33;;;31.50;33.20;;;;;;4944220;29;20752;-87
2021/06/26 10:04:28;;;;;;;10.33;9.70;;;31.20;34.90;;;;;;4945190;29;20438;-87
2021/06/26 10:06:54;;;;;;;10.17;9.40;;;30.00;34.90;;;;;;4943932;29;20415;-87
2021/06/26 10:09:20;;;;;;;10.90;10.13;;;29.20;35.10;;;;;;4967755;28;20426;-88
2021/06/26 10:11:47;;;;;;;10.47;9.87;;;29.20;35.40;;;;;;4977567;28;20421;-88
2021/06/26 10:14:16;;;;;;;9.97;9.47;;;30.70;36.20;;;;;;4979408;28;20819;-90
2021/06/26 10:16:42;;;;;;;9.63;8.97;;;30.90;37.20;;;;;;4987686;28;20417;-90
2021/06/26 10:19:12;;;;;;;10.17;9.60;;;29.20;36.60;;;;;;4987168;28;20417;-89
2021/06/26 10:21:40;;;;;;;9.20;8.50;;;28.20;35.00;;;;;;4979786;28;20453;-88
2021/06/26 10:24:15;;;;;;;10.97;10.07;;;29.50;35.00;;;;;;4963087;28;20497;-90
2021/06/26 10:26:43;;;;;;;8.90;8.40;;;29.40;35.10;;;;;;4976876;28;20425;-90
2021/06/26 10:29:10;;;;;;;9.10;8.70;;;29.40;35.90;;;;;;4974344;28;20421;-90
2021/06/26 10:31:41;;;;;;;8.93;8.50;;;28.80;36.30;;;;;;4998287;28;20471;-90
2021/06/26 10:34:12;;;;;;;9.20;8.80;;;29.60;37.60;;;;;;5010992;28;20451;-89
2021/06/26 10:36:39;;;;;;;10.60;10.00;;;28.40;35.40;;;;;;4992273;28;20428;-89
2021/06/26 10:39:28;;;;;;;11.37;10.60;;;28.10;36.60;;;;;;4988611;28;20491;-90
2021/06/26 10:42:10;;;;;;;10.27;9.77;;;27.70;36.20;;;;;;4992830;28;20487;-90
2021/06/26 10:44:51;;;;;;;10.33;9.73;;;29.50;36.80;;;;;;4996020;28;20425;-89
2021/06/26 10:47:38;;;;;;;10.43;9.53;;;28.30;36.70;;;;;;5008980;28;20503;-91
2021/06/26 10:50:15;;;;;;;11.77;10.67;;;28.40;36.60;;;;;;5006337;28;20417;-90
2021/06/26 10:52:51;;;;;;;11.40;10.60;;;28.50;38.30;;;;;;5004654;28;20420;-88
2021/06/26 10:55:35;;;;;;;12.43;11.43;;;28.80;36.50;;;;;;4986741;28;20495;-89
2021/06/26 10:58:03;;;;;;;12.67;11.67;;;29.50;38.00;;;;;;5005120;28;20460;-90
2021/06/26 11:00:41;;;;;;;12.40;11.70;;;28.80;36.70;;;;;;5007403;28;20409;-89
2021/06/26 11:03:30;;;;;;;12.43;11.53;;;28.70;37.80;;;;;;5010343;28;20432;-89
2021/06/26 11:05:57;;;;;;;13.13;12.23;;;30.10;37.90;;;;;;4989307;28;20572;-90
2021/06/26 11:08:24;;;;;;;12.63;11.83;;;28.70;38.50;;;;;;5006079;28;20437;-90
2021/06/26 11:11:00;;;;;;;12.80;12.00;;;28.80;39.20;;;;;;5007152;28;20443;-89
2021/06/26 11:13:28;;;;;;;12.80;11.90;;;28.70;37.70;;;;;;4996289;28;20488;-89
2021/06/26 11:16:07;;;;;;;12.23;11.53;;;28.70;37.80;;;;;;5007311;28;20508;-89
2021/06/26 11:18:34;;;;;;;12.00;10.90;;;28.70;37.00;;;;;;5006338;28;20447;-88
2021/06/26 11:21:01;;;;;;;12.70;11.60;;;28.50;38.10;;;;;;5008966;28;20428;-88
2021/06/26 11:23:28;;;;;;;12.60;11.70;;;29.00;38.80;;;;;;4991825;28;20463;-91
2021/06/26 11:26:04;;;;;;;12.60;11.73;;;29.60;37.80;;;;;;5006800;28;20425;-90
2021/06/26 11:28:41;;;;;;;11.57;10.87;;;28.60;38.00;;;;;;5008002;28;20459;-90
2021/06/26 11:31:07;;;;;;;15.43;11.90;;;29.50;36.60;;;;;;5007963;28;20448;-89
2021/06/26 11:33:36;;;;;;;10.90;10.30;;;30.80;36.10;;;;;;5008452;28;20424;-91
2021/06/26 11:36:07;;;;;;;12.50;11.03;;;32.20;34.40;;;;;;4992253;28;20476;-91
2021/06/26 11:38:36;;;;;;;11.67;10.80;;;30.70;33.80;;;;;;4993467;28;20417;-92
2021/06/26 11:41:07;;;;;;;12.03;11.17;;;29.20;34.40;;;;;;5004689;28;20823;-91
2021/06/26 11:43:33;;;;;;;11.50;10.57;;;29.40;33.80;;;;;;5007819;28;20404;-91
2021/06/26 11:46:04;;;;;;;13.20;12.27;;;29.90;35.20;;;;;;5007036;28;20432;-87
2021/06/26 11:48:31;;;;;;;12.67;11.83;;;30.40;35.60;;;;;;5006558;28;20425;-89
2021/06/26 11:51:13;;;;;;;12.33;11.70;;;29.50;35.40;;;;;;5009554;28;20421;-88
2021/06/26 11:53:41;;;;;;;12.67;11.50;;;29.60;36.60;;;;;;4995259;28;20428;-91
2021/06/26 11:56:16;;;;;;;12.63;11.67;;;30.80;37.70;;;;;;5011388;28;20480;-90
2021/06/26 11:58:48;;;;;;;11.90;11.10;;;30.90;37.10;;;;;;5011142;28;20447;-90
2021/06/26 12:01:27;;;;;;;11.73;10.80;;;29.00;36.90;;;;;;5012202;28;20527;-89
2021/06/26 12:03:53;;;;;;;12.20;11.40;;;28.70;35.80;;;;;;5009922;28;20435;-87
2021/06/26 12:06:19;;;;;;;12.17;10.97;;;28.40;36.90;;;;;;5009272;28;20417;-89
2021/06/26 12:08:53;;;;;;;13.70;12.80;;;28.20;37.00;;;;;;5009691;28;20974;-90
2021/06/26 12:11:35;;;;;;;14.37;13.30;;;28.90;38.20;;;;;;4993424;28;20425;-91
2021/06/26 12:14:02;;;;;;;13.47;12.67;;;27.60;39.20;;;;;;4987288;28;20893;-89
2021/06/26 12:16:36;;;;;;;14.07;12.87;;;27.40;39.10;;;;;;4985002;28;20434;-89
2021/06/26 12:19:13;;;;;;;15.90;14.40;;;27.60;38.80;;;;;;4989669;28;20460;-88
2021/06/26 12:21:50;;;;;;;15.90;14.60;;;27.70;40.20;;;;;;4988890;28;20504;-91
2021/06/26 12:24:38;;;;;;;17.73;15.40;;;27.40;40.70;;;;;;4988796;28;20421;-90
2021/06/26 12:27:09;;;;;;;16.53;15.07;;;25.70;39.30;;;;;;4992282;28;20424;-88
2021/06/26 12:29:39;;;;;;;15.60;14.50;;;28.00;40.00;;;;;;4978985;28;20432;-89
2021/06/26 12:32:06;;;;;;;15.63;14.23;;;27.80;41.60;;;;;;4992239;28;20523;-89
2021/06/26 12:34:37;;;;;;;13.00;12.10;;;28.00;40.60;;;;;;4992300;28;20461;-90
2021/06/26 12:37:03;;;;;;;10.33;9.73;;;29.50;39.80;;;;;;4970134;28;20425;-90
2021/06/26 12:39:37;;;;;;;12.67;11.70;;;31.60;37.20;;;;;;4990345;28;20432;-91
2021/06/26 12:42:06;;;;;;;9.97;9.37;;;32.10;34.70;;;;;;4990290;28;20432;-90
2021/06/26 12:44:40;;;;;;;11.23;10.60;;;31.30;33.60;;;;;;4991989;28;20417;-89
2021/06/26 12:47:21;;;;;;;10.60;10.00;;;32.50;35.20;;;;;;4993210;28;20517;-91
2021/06/26 12:49:58;;;;;;;12.50;11.60;;;29.80;36.80;;;;;;4989735;28;20432;-90
2021/06/26 12:52:24;;;;;;;10.93;10.03;;;29.10;36.20;;;;;;4649918;28;9999809;-89
2021/06/26 12:55:19;;;;;;;9.90;9.30;;;28.50;35.40;;;;;;5026969;28;20224;-89
2021/06/26 12:57:48;;;;;;;11.70;10.90;;;28.90;35.30;;;;;;5028271;28;20279;-90
2021/06/26 13:00:25;;;;;;;11.60;10.70;;;29.20;38.80;;;;;;5028842;28;20483;-89